sensor_id;sensor_type;location;lat;lon;timestamp;P1;durP1;ratioP1;P2;durP2;ratioP2
6661;SDS011;3367;48.714;8.994;2023-07-02T00:00:12;4.13;;;3.83;;
6661;SDS011;3367;48.714;8.994;2023-07-02T00:02:48;3.97;;;3.67;;
6661;SDS011;3367;48.714;8.994;2023-07-02T00:05:26;7.37;;;3.80;;
6661;SDS011;3367;48.714;8.994;2023-07-02T00:07:55;4.83;;;3.67;;
6661;SDS011;3367;48.714;8.994;2023-07-02T00:10:23;4.20;;;3.80;;
6661;SDS011;3367;48.714;8.994;2023-07-02T00:12:52;3.67;;;3.37;;
6661;SDS011;3367;48.714;8.994;2023-07-02T00:15:19;3.43;;;3.13;;
6661;SDS011;3367;48.714;8.994;2023-07-02T00:17:48;5.60;;;4.03;;
6661;SDS011;3367;48.714;8.994;2023-07-02T00:20:15;4.37;;;4.00;;
6661;SDS011;3367;48.714;8.994;2023-07-02T00:22:46;4.90;;;4.50;;
6661;SDS011;3367;48.714;8.994;2023-07-02T00:25:14;4.17;;;3.87;;
6661;SDS011;3367;48.714;8.994;2023-07-02T00:27:44;4.83;;;4.13;;
6661;SDS011;3367;48.714;8.994;2023-07-02T00:30:14;4.40;;;4.00;;
6661;SDS011;3367;48.714;8.994;2023-07-02T00:32:41;4.30;;;3.90;;
6661;SDS011;3367;48.714;8.994;2023-07-02T00:35:08;6.73;;;3.67;;
6661;SDS011;3367;48.714;8.994;2023-07-02T00:37:34;4.07;;;3.67;;
6661;SDS011;3367;48.714;8.994;2023-07-02T00:40:07;3.83;;;3.53;;
6661;SDS011;3367;48.714;8.994;2023-07-02T00:42:38;5.03;;;3.30;;
6661;SDS011;3367;48.714;8.994;2023-07-02T00:45:05;5.90;;;4.00;;
6661;SDS011;3367;48.714;8.994;2023-07-02T00:47:32;3.87;;;3.50;;
6661;SDS011;3367;48.714;8.994;2023-07-02T00:50:00;4.40;;;3.50;;
6661;SDS011;3367;48.714;8.994;2023-07-02T00:52:27;3.90;;;3.20;;
6661;SDS011;3367;48.714;8.994;2023-07-02T00:55:00;4.00;;;3.30;;
6661;SDS011;3367;48.714;8.994;2023-07-02T00:57:28;5.57;;;3.67;;
6661;SDS011;3367;48.714;8.994;2023-07-02T00:59:55;3.90;;;3.60;;
6661;SDS011;3367;48.714;8.994;2023-07-02T01:02:22;4.10;;;3.37;;
6661;SDS011;3367;48.714;8.994;2023-07-02T01:04:50;3.37;;;3.10;;
6661;SDS011;3367;48.714;8.994;2023-07-02T01:07:24;3.53;;;3.23;;
6661;SDS011;3367;48.714;8.994;2023-07-02T01:09:51;3.27;;;2.93;;
6661;SDS011;3367;48.714;8.994;2023-07-02T01:12:21;6.00;;;3.30;;
6661;SDS011;3367;48.714;8.994;2023-07-02T01:14:56;3.77;;;2.80;;
6661;SDS011;3367;48.714;8.994;2023-07-02T01:17:34;4.00;;;3.20;;
6661;SDS011;3367;48.714;8.994;2023-07-02T01:20:08;4.87;;;2.83;;
6661;SDS011;3367;48.714;8.994;2023-07-02T01:22:43;3.27;;;3.00;;
6661;SDS011;3367;48.714;8.994;2023-07-02T01:25:09;8.30;;;4.00;;
6661;SDS011;3367;48.714;8.994;2023-07-02T01:27:41;6.80;;;3.70;;
6661;SDS011;3367;48.714;8.994;2023-07-02T01:30:14;3.80;;;3.50;;
6661;SDS011;3367;48.714;8.994;2023-07-02T01:32:51;3.13;;;2.87;;
6661;SDS011;3367;48.714;8.994;2023-07-02T01:35:21;3.23;;;2.90;;
6661;SDS011;3367;48.714;8.994;2023-07-02T01:37:48;3.27;;;2.97;;
6661;SDS011;3367;48.714;8.994;2023-07-02T01:40:30;5.07;;;3.47;;
6661;SDS011;3367;48.714;8.994;2023-07-02T01:42:59;4.57;;;3.67;;
6661;SDS011;3367;48.714;8.994;2023-07-02T01:45:32;3.97;;;3.27;;
6661;SDS011;3367;48.714;8.994;2023-07-02T01:48:01;3.40;;;3.10;;
6661;SDS011;3367;48.714;8.994;2023-07-02T01:50:30;2.70;;;2.57;;
6661;SDS011;3367;48.714;8.994;2023-07-02T01:52:56;4.13;;;3.07;;
6661;SDS011;3367;48.714;8.994;2023-07-02T01:55:23;3.00;;;2.80;;
6661;SDS011;3367;48.714;8.994;2023-07-02T01:57:50;3.47;;;3.20;;
6661;SDS011;3367;48.714;8.994;2023-07-02T02:00:17;3.20;;;3.00;;
6661;SDS011;3367;48.714;8.994;2023-07-02T02:02:50;3.73;;;2.93;;
6661;SDS011;3367;48.714;8.994;2023-07-02T02:05:16;3.00;;;2.63;;
6661;SDS011;3367;48.714;8.994;2023-07-02T02:07:44;3.10;;;2.80;;
6661;SDS011;3367;48.714;8.994;2023-07-02T02:10:14;3.20;;;3.00;;
6661;SDS011;3367;48.714;8.994;2023-07-02T02:12:51;4.23;;;2.63;;
6661;SDS011;3367;48.714;8.994;2023-07-02T02:15:18;5.87;;;3.13;;
6661;SDS011;3367;48.714;8.994;2023-07-02T02:17:47;4.40;;;2.90;;
6661;SDS011;3367;48.714;8.994;2023-07-02T02:20:14;3.50;;;3.20;;
6661;SDS011;3367;48.714;8.994;2023-07-02T02:22:45;3.37;;;3.17;;
6661;SDS011;3367;48.714;8.994;2023-07-02T02:25:15;3.33;;;3.03;;
6661;SDS011;3367;48.714;8.994;2023-07-02T02:27:44;3.07;;;2.80;;
6661;SDS011;3367;48.714;8.994;2023-07-02T02:30:14;5.20;;;2.97;;
6661;SDS011;3367;48.714;8.994;2023-07-02T02:33:00;3.00;;;2.60;;
6661;SDS011;3367;48.714;8.994;2023-07-02T02:35:32;4.03;;;3.63;;
6661;SDS011;3367;48.714;8.994;2023-07-02T02:38:01;3.57;;;3.27;;
6661;SDS011;3367;48.714;8.994;2023-07-02T02:40:29;6.03;;;4.20;;
6661;SDS011;3367;48.714;8.994;2023-07-02T02:42:59;4.57;;;3.03;;
6661;SDS011;3367;48.714;8.994;2023-07-02T02:45:29;3.43;;;3.10;;
6661;SDS011;3367;48.714;8.994;2023-07-02T02:47:56;5.53;;;3.47;;
6661;SDS011;3367;48.714;8.994;2023-07-02T02:50:36;3.43;;;2.70;;
6661;SDS011;3367;48.714;8.994;2023-07-02T02:53:07;3.40;;;3.10;;
6661;SDS011;3367;48.714;8.994;2023-07-02T02:55:46;88.70;;;73.33;;
6661;SDS011;3367;48.714;8.994;2023-07-02T02:58:13;3.80;;;3.23;;
6661;SDS011;3367;48.714;8.994;2023-07-02T03:00:39;6.97;;;3.47;;
6661;SDS011;3367;48.714;8.994;2023-07-02T03:03:13;3.40;;;2.97;;
6661;SDS011;3367;48.714;8.994;2023-07-02T03:05:40;5.70;;;3.43;;
6661;SDS011;3367;48.714;8.994;2023-07-02T03:08:13;4.37;;;2.90;;
6661;SDS011;3367;48.714;8.994;2023-07-02T03:10:42;3.33;;;3.13;;
6661;SDS011;3367;48.714;8.994;2023-07-02T03:13:09;4.17;;;2.90;;
6661;SDS011;3367;48.714;8.994;2023-07-02T03:15:36;4.53;;;3.50;;
6661;SDS011;3367;48.714;8.994;2023-07-02T03:18:05;6.50;;;4.10;;
6661;SDS011;3367;48.714;8.994;2023-07-02T03:20:35;4.50;;;3.67;;
6661;SDS011;3367;48.714;8.994;2023-07-02T03:23:04;4.03;;;3.50;;
6661;SDS011;3367;48.714;8.994;2023-07-02T03:25:39;4.27;;;3.90;;
6661;SDS011;3367;48.714;8.994;2023-07-02T03:28:09;6.07;;;3.83;;
6661;SDS011;3367;48.714;8.994;2023-07-02T03:30:38;4.50;;;4.10;;
6661;SDS011;3367;48.714;8.994;2023-07-02T03:33:05;4.97;;;4.13;;
6661;SDS011;3367;48.714;8.994;2023-07-02T03:35:34;6.13;;;4.50;;
6661;SDS011;3367;48.714;8.994;2023-07-02T03:38:00;9.30;;;4.33;;
6661;SDS011;3367;48.714;8.994;2023-07-02T03:40:27;4.63;;;3.60;;
6661;SDS011;3367;48.714;8.994;2023-07-02T03:43:03;9.67;;;4.20;;
6661;SDS011;3367;48.714;8.994;2023-07-02T03:45:29;4.90;;;4.40;;
6661;SDS011;3367;48.714;8.994;2023-07-02T03:47:56;5.10;;;4.20;;
6661;SDS011;3367;48.714;8.994;2023-07-02T03:50:26;8.77;;;4.63;;
6661;SDS011;3367;48.714;8.994;2023-07-02T03:52:58;8.03;;;4.67;;
6661;SDS011;3367;48.714;8.994;2023-07-02T03:55:25;5.50;;;4.27;;
6661;SDS011;3367;48.714;8.994;2023-07-02T03:57:51;4.13;;;3.60;;
6661;SDS011;3367;48.714;8.994;2023-07-02T04:00:19;5.63;;;4.33;;
6661;SDS011;3367;48.714;8.994;2023-07-02T04:02:46;5.97;;;4.17;;
6661;SDS011;3367;48.714;8.994;2023-07-02T04:05:13;4.50;;;3.57;;
6661;SDS011;3367;48.714;8.994;2023-07-02T04:07:40;7.03;;;4.10;;
6661;SDS011;3367;48.714;8.994;2023-07-02T04:10:07;5.47;;;4.47;;
6661;SDS011;3367;48.714;8.994;2023-07-02T04:12:34;4.30;;;3.87;;
6661;SDS011;3367;48.714;8.994;2023-07-02T04:15:01;4.73;;;3.97;;
6661;SDS011;3367;48.714;8.994;2023-07-02T04:17:29;6.33;;;4.33;;
6661;SDS011;3367;48.714;8.994;2023-07-02T04:19:56;8.70;;;4.03;;
6661;SDS011;3367;48.714;8.994;2023-07-02T04:22:25;5.20;;;3.80;;
6661;SDS011;3367;48.714;8.994;2023-07-02T04:24:52;5.20;;;3.80;;
6661;SDS011;3367;48.714;8.994;2023-07-02T04:27:19;5.77;;;4.50;;
6661;SDS011;3367;48.714;8.994;2023-07-02T04:29:45;6.07;;;3.47;;
6661;SDS011;3367;48.714;8.994;2023-07-02T04:32:13;13.43;;;3.60;;
6661;SDS011;3367;48.714;8.994;2023-07-02T04:34:41;5.40;;;4.50;;
6661;SDS011;3367;48.714;8.994;2023-07-02T04:37:08;7.23;;;4.27;;
6661;SDS011;3367;48.714;8.994;2023-07-02T04:39:35;7.07;;;4.00;;
6661;SDS011;3367;48.714;8.994;2023-07-02T04:42:02;8.40;;;3.93;;
6661;SDS011;3367;48.714;8.994;2023-07-02T04:44:29;3.93;;;3.57;;
6661;SDS011;3367;48.714;8.994;2023-07-02T04:46:57;4.27;;;3.87;;
6661;SDS011;3367;48.714;8.994;2023-07-02T04:49:24;6.90;;;4.00;;
6661;SDS011;3367;48.714;8.994;2023-07-02T04:51:52;3.80;;;3.50;;
6661;SDS011;3367;48.714;8.994;2023-07-02T04:54:19;4.40;;;4.00;;
6661;SDS011;3367;48.714;8.994;2023-07-02T04:56:46;4.70;;;3.50;;
6661;SDS011;3367;48.714;8.994;2023-07-02T04:59:14;7.10;;;3.97;;
6661;SDS011;3367;48.714;8.994;2023-07-02T05:01:40;6.47;;;3.77;;
6661;SDS011;3367;48.714;8.994;2023-07-02T05:04:09;7.47;;;3.87;;
6661;SDS011;3367;48.714;8.994;2023-07-02T05:06:36;3.70;;;3.30;;
6661;SDS011;3367;48.714;8.994;2023-07-02T05:09:04;4.90;;;3.90;;
6661;SDS011;3367;48.714;8.994;2023-07-02T05:11:31;4.60;;;4.20;;
6661;SDS011;3367;48.714;8.994;2023-07-02T05:13:58;3.83;;;3.43;;
6661;SDS011;3367;48.714;8.994;2023-07-02T05:16:25;3.50;;;3.20;;
6661;SDS011;3367;48.714;8.994;2023-07-02T05:18:51;5.30;;;3.40;;
6661;SDS011;3367;48.714;8.994;2023-07-02T05:21:18;5.07;;;3.70;;
6661;SDS011;3367;48.714;8.994;2023-07-02T05:23:45;4.80;;;3.63;;
6661;SDS011;3367;48.714;8.994;2023-07-02T05:26:14;3.40;;;2.80;;
6661;SDS011;3367;48.714;8.994;2023-07-02T05:28:40;3.73;;;3.40;;
6661;SDS011;3367;48.714;8.994;2023-07-02T05:31:07;5.03;;;3.33;;
6661;SDS011;3367;48.714;8.994;2023-07-02T05:33:35;5.10;;;3.10;;
6661;SDS011;3367;48.714;8.994;2023-07-02T05:36:02;6.10;;;3.53;;
6661;SDS011;3367;48.714;8.994;2023-07-02T05:38:29;5.43;;;3.53;;
6661;SDS011;3367;48.714;8.994;2023-07-02T05:40:56;4.70;;;4.20;;
6661;SDS011;3367;48.714;8.994;2023-07-02T05:43:24;4.00;;;3.17;;
6661;SDS011;3367;48.714;8.994;2023-07-02T05:45:50;8.10;;;3.83;;
6661;SDS011;3367;48.714;8.994;2023-07-02T05:48:17;5.67;;;3.50;;
6661;SDS011;3367;48.714;8.994;2023-07-02T05:50:44;6.30;;;3.90;;
6661;SDS011;3367;48.714;8.994;2023-07-02T05:53:11;5.63;;;4.13;;
6661;SDS011;3367;48.714;8.994;2023-07-02T05:55:38;8.30;;;4.40;;
6661;SDS011;3367;48.714;8.994;2023-07-02T05:58:04;4.67;;;4.20;;
6661;SDS011;3367;48.714;8.994;2023-07-02T06:00:33;9.50;;;5.57;;
6661;SDS011;3367;48.714;8.994;2023-07-02T06:03:00;7.27;;;5.20;;
6661;SDS011;3367;48.714;8.994;2023-07-02T06:05:27;5.80;;;4.33;;
6661;SDS011;3367;48.714;8.994;2023-07-02T06:07:53;7.07;;;5.50;;
6661;SDS011;3367;48.714;8.994;2023-07-02T06:10:21;8.70;;;6.20;;
6661;SDS011;3367;48.714;8.994;2023-07-02T06:12:48;8.83;;;5.93;;
6661;SDS011;3367;48.714;8.994;2023-07-02T06:15:14;10.90;;;6.77;;
6661;SDS011;3367;48.714;8.994;2023-07-02T06:17:42;11.60;;;7.03;;
6661;SDS011;3367;48.714;8.994;2023-07-02T06:20:09;11.70;;;7.70;;
6661;SDS011;3367;48.714;8.994;2023-07-02T06:22:37;13.73;;;7.23;;
6661;SDS011;3367;48.714;8.994;2023-07-02T06:25:05;13.53;;;8.00;;
6661;SDS011;3367;48.714;8.994;2023-07-02T06:27:32;13.47;;;7.43;;
6661;SDS011;3367;48.714;8.994;2023-07-02T06:29:59;15.77;;;8.13;;
6661;SDS011;3367;48.714;8.994;2023-07-02T06:32:25;15.57;;;7.90;;
6661;SDS011;3367;48.714;8.994;2023-07-02T06:34:53;17.20;;;8.93;;
6661;SDS011;3367;48.714;8.994;2023-07-02T06:37:20;13.60;;;8.80;;
6661;SDS011;3367;48.714;8.994;2023-07-02T06:39:47;14.80;;;9.67;;
6661;SDS011;3367;48.714;8.994;2023-07-02T06:42:13;15.20;;;9.13;;
6661;SDS011;3367;48.714;8.994;2023-07-02T06:44:40;13.07;;;9.33;;
6661;SDS011;3367;48.714;8.994;2023-07-02T06:47:07;14.93;;;8.80;;
6661;SDS011;3367;48.714;8.994;2023-07-02T06:49:34;16.67;;;8.70;;
6661;SDS011;3367;48.714;8.994;2023-07-02T06:52:02;15.70;;;9.17;;
6661;SDS011;3367;48.714;8.994;2023-07-02T06:54:29;15.30;;;9.43;;
6661;SDS011;3367;48.714;8.994;2023-07-02T06:56:56;18.33;;;9.43;;
6661;SDS011;3367;48.714;8.994;2023-07-02T06:59:22;17.50;;;10.17;;
6661;SDS011;3367;48.714;8.994;2023-07-02T07:01:50;21.60;;;11.10;;
6661;SDS011;3367;48.714;8.994;2023-07-02T07:04:16;17.57;;;10.10;;
6661;SDS011;3367;48.714;8.994;2023-07-02T07:06:43;20.27;;;10.50;;
6661;SDS011;3367;48.714;8.994;2023-07-02T07:09:11;17.57;;;10.80;;
6661;SDS011;3367;48.714;8.994;2023-07-02T07:11:38;18.43;;;10.33;;
6661;SDS011;3367;48.714;8.994;2023-07-02T07:14:05;15.90;;;10.40;;
6661;SDS011;3367;48.714;8.994;2023-07-02T07:16:31;14.63;;;9.77;;
6661;SDS011;3367;48.714;8.994;2023-07-02T07:18:58;23.53;;;10.00;;
6661;SDS011;3367;48.714;8.994;2023-07-02T07:21:25;21.00;;;12.20;;
6661;SDS011;3367;48.714;8.994;2023-07-02T07:23:51;20.63;;;10.90;;
6661;SDS011;3367;48.714;8.994;2023-07-02T07:26:19;20.50;;;11.10;;
6661;SDS011;3367;48.714;8.994;2023-07-02T07:28:46;21.70;;;11.13;;
6661;SDS011;3367;48.714;8.994;2023-07-02T07:31:14;19.43;;;11.17;;
6661;SDS011;3367;48.714;8.994;2023-07-02T07:33:41;18.27;;;11.23;;
6661;SDS011;3367;48.714;8.994;2023-07-02T07:36:08;18.53;;;11.60;;
6661;SDS011;3367;48.714;8.994;2023-07-02T07:38:35;22.70;;;12.40;;
6661;SDS011;3367;48.714;8.994;2023-07-02T07:41:02;18.07;;;10.70;;
6661;SDS011;3367;48.714;8.994;2023-07-02T07:43:30;23.07;;;11.80;;
6661;SDS011;3367;48.714;8.994;2023-07-02T07:45:56;26.50;;;13.20;;
6661;SDS011;3367;48.714;8.994;2023-07-02T07:48:24;15.83;;;11.50;;
6661;SDS011;3367;48.714;8.994;2023-07-02T07:50:51;25.13;;;12.73;;
6661;SDS011;3367;48.714;8.994;2023-07-02T07:53:18;20.17;;;11.00;;
6661;SDS011;3367;48.714;8.994;2023-07-02T07:55:45;18.87;;;12.93;;
6661;SDS011;3367;48.714;8.994;2023-07-02T07:58:11;24.23;;;11.30;;
6661;SDS011;3367;48.714;8.994;2023-07-02T08:00:39;20.57;;;12.30;;
6661;SDS011;3367;48.714;8.994;2023-07-02T08:03:06;17.67;;;11.73;;
6661;SDS011;3367;48.714;8.994;2023-07-02T08:05:33;21.57;;;12.20;;
6661;SDS011;3367;48.714;8.994;2023-07-02T08:07:59;17.30;;;10.30;;
6661;SDS011;3367;48.714;8.994;2023-07-02T08:10:26;20.87;;;12.07;;
6661;SDS011;3367;48.714;8.994;2023-07-02T08:12:53;18.73;;;11.70;;
6661;SDS011;3367;48.714;8.994;2023-07-02T08:15:20;22.70;;;11.80;;
6661;SDS011;3367;48.714;8.994;2023-07-02T08:17:48;18.37;;;12.03;;
6661;SDS011;3367;48.714;8.994;2023-07-02T08:20:19;16.70;;;11.37;;
6661;SDS011;3367;48.714;8.994;2023-07-02T08:22:46;24.03;;;12.23;;
6661;SDS011;3367;48.714;8.994;2023-07-02T08:25:12;25.90;;;12.47;;
6661;SDS011;3367;48.714;8.994;2023-07-02T08:27:39;19.77;;;11.80;;
6661;SDS011;3367;48.714;8.994;2023-07-02T08:30:06;18.43;;;11.93;;
6661;SDS011;3367;48.714;8.994;2023-07-02T08:32:34;21.10;;;12.57;;
6661;SDS011;3367;48.714;8.994;2023-07-02T08:35:02;18.73;;;12.23;;
6661;SDS011;3367;48.714;8.994;2023-07-02T08:37:29;18.87;;;12.27;;
6661;SDS011;3367;48.714;8.994;2023-07-02T08:39:55;17.43;;;11.53;;
6661;SDS011;3367;48.714;8.994;2023-07-02T08:42:22;16.97;;;10.87;;
6661;SDS011;3367;48.714;8.994;2023-07-02T08:44:53;22.80;;;12.93;;
6661;SDS011;3367;48.714;8.994;2023-07-02T08:47:20;16.47;;;11.90;;
6661;SDS011;3367;48.714;8.994;2023-07-02T08:49:47;16.30;;;10.90;;
6661;SDS011;3367;48.714;8.994;2023-07-02T08:52:15;16.40;;;11.63;;
6661;SDS011;3367;48.714;8.994;2023-07-02T08:54:42;18.50;;;10.80;;
6661;SDS011;3367;48.714;8.994;2023-07-02T08:57:09;15.33;;;10.87;;
6661;SDS011;3367;48.714;8.994;2023-07-02T08:59:36;18.77;;;10.57;;
6661;SDS011;3367;48.714;8.994;2023-07-02T09:02:03;17.00;;;11.40;;
6661;SDS011;3367;48.714;8.994;2023-07-02T09:04:30;15.00;;;9.47;;
6661;SDS011;3367;48.714;8.994;2023-07-02T09:07:03;14.63;;;9.83;;
6661;SDS011;3367;48.714;8.994;2023-07-02T09:09:33;15.60;;;9.70;;
6661;SDS011;3367;48.714;8.994;2023-07-02T09:12:10;14.97;;;9.70;;
6661;SDS011;3367;48.714;8.994;2023-07-02T09:14:53;14.50;;;10.03;;
6661;SDS011;3367;48.714;8.994;2023-07-02T09:17:20;16.03;;;9.90;;
6661;SDS011;3367;48.714;8.994;2023-07-02T09:19:49;15.80;;;9.70;;
6661;SDS011;3367;48.714;8.994;2023-07-02T09:22:16;20.33;;;10.60;;
6661;SDS011;3367;48.714;8.994;2023-07-02T09:24:51;21.23;;;10.17;;
6661;SDS011;3367;48.714;8.994;2023-07-02T09:27:19;15.03;;;9.80;;
6661;SDS011;3367;48.714;8.994;2023-07-02T09:29:49;16.83;;;10.10;;
6661;SDS011;3367;48.714;8.994;2023-07-02T09:32:23;16.87;;;10.60;;
6661;SDS011;3367;48.714;8.994;2023-07-02T09:34:51;21.53;;;10.67;;
6661;SDS011;3367;48.714;8.994;2023-07-02T09:37:20;18.50;;;10.73;;
6661;SDS011;3367;48.714;8.994;2023-07-02T09:39:48;20.87;;;11.30;;
6661;SDS011;3367;48.714;8.994;2023-07-02T09:42:18;22.30;;;12.57;;
6661;SDS011;3367;48.714;8.994;2023-07-02T09:44:45;23.73;;;14.10;;
6661;SDS011;3367;48.714;8.994;2023-07-02T09:47:13;22.60;;;12.90;;
6661;SDS011;3367;48.714;8.994;2023-07-02T09:49:43;20.50;;;12.63;;
6661;SDS011;3367;48.714;8.994;2023-07-02T09:52:15;23.97;;;13.87;;
6661;SDS011;3367;48.714;8.994;2023-07-02T09:54:44;24.20;;;13.90;;
6661;SDS011;3367;48.714;8.994;2023-07-02T09:57:10;28.70;;;13.03;;
6661;SDS011;3367;48.714;8.994;2023-07-02T09:59:39;27.87;;;15.20;;
6661;SDS011;3367;48.714;8.994;2023-07-02T10:02:07;26.43;;;15.30;;
6661;SDS011;3367;48.714;8.994;2023-07-02T10:04:40;28.60;;;14.80;;
6661;SDS011;3367;48.714;8.994;2023-07-02T10:07:08;20.30;;;12.90;;
6661;SDS011;3367;48.714;8.994;2023-07-02T10:09:36;20.07;;;13.73;;
6661;SDS011;3367;48.714;8.994;2023-07-02T10:12:17;21.57;;;12.93;;
6661;SDS011;3367;48.714;8.994;2023-07-02T10:14:46;22.50;;;12.90;;
6661;SDS011;3367;48.714;8.994;2023-07-02T10:17:23;20.10;;;12.93;;
6661;SDS011;3367;48.714;8.994;2023-07-02T10:19:52;21.63;;;12.20;;
6661;SDS011;3367;48.714;8.994;2023-07-02T10:22:19;15.80;;;10.77;;
6661;SDS011;3367;48.714;8.994;2023-07-02T10:24:53;17.33;;;11.80;;
6661;SDS011;3367;48.714;8.994;2023-07-02T10:27:32;22.20;;;12.47;;
6661;SDS011;3367;48.714;8.994;2023-07-02T10:30:01;17.77;;;11.80;;
6661;SDS011;3367;48.714;8.994;2023-07-02T10:32:30;23.43;;;12.60;;
6661;SDS011;3367;48.714;8.994;2023-07-02T10:34:59;21.07;;;13.63;;
6661;SDS011;3367;48.714;8.994;2023-07-02T10:37:34;22.93;;;13.23;;
6661;SDS011;3367;48.714;8.994;2023-07-02T10:40:02;22.57;;;13.30;;
6661;SDS011;3367;48.714;8.994;2023-07-02T10:42:31;17.30;;;12.17;;
6661;SDS011;3367;48.714;8.994;2023-07-02T10:44:58;18.57;;;12.83;;
6661;SDS011;3367;48.714;8.994;2023-07-02T10:47:26;19.57;;;13.33;;
6661;SDS011;3367;48.714;8.994;2023-07-02T10:49:54;19.80;;;12.30;;
6661;SDS011;3367;48.714;8.994;2023-07-02T10:52:21;22.33;;;12.77;;
6661;SDS011;3367;48.714;8.994;2023-07-02T10:54:48;18.00;;;12.40;;
6661;SDS011;3367;48.714;8.994;2023-07-02T10:57:15;21.27;;;12.50;;
6661;SDS011;3367;48.714;8.994;2023-07-02T10:59:45;21.93;;;12.53;;
6661;SDS011;3367;48.714;8.994;2023-07-02T11:15:49;18.10;;;11.97;;
6661;SDS011;3367;48.714;8.994;2023-07-02T11:18:16;18.70;;;11.60;;
6661;SDS011;3367;48.714;8.994;2023-07-02T11:20:52;17.37;;;11.83;;
6661;SDS011;3367;48.714;8.994;2023-07-02T11:23:22;18.37;;;11.87;;
6661;SDS011;3367;48.714;8.994;2023-07-02T11:25:54;20.03;;;13.10;;
6661;SDS011;3367;48.714;8.994;2023-07-02T11:28:26;18.37;;;11.93;;
6661;SDS011;3367;48.714;8.994;2023-07-02T11:30:55;19.37;;;12.20;;
6661;SDS011;3367;48.714;8.994;2023-07-02T11:33:37;18.23;;;12.10;;
6661;SDS011;3367;48.714;8.994;2023-07-02T11:36:18;16.13;;;11.27;;
6661;SDS011;3367;48.714;8.994;2023-07-02T11:38:46;19.13;;;11.50;;
6661;SDS011;3367;48.714;8.994;2023-07-02T11:41:13;18.13;;;12.40;;
6661;SDS011;3367;48.714;8.994;2023-07-02T11:43:40;20.30;;;12.73;;
6661;SDS011;3367;48.714;8.994;2023-07-02T11:46:08;21.43;;;11.50;;
6661;SDS011;3367;48.714;8.994;2023-07-02T11:48:34;20.90;;;14.17;;
6661;SDS011;3367;48.714;8.994;2023-07-02T11:51:01;15.30;;;11.63;;
6661;SDS011;3367;48.714;8.994;2023-07-02T11:53:28;25.03;;;13.23;;
6661;SDS011;3367;48.714;8.994;2023-07-02T11:55:54;18.50;;;12.17;;
6661;SDS011;3367;48.714;8.994;2023-07-02T11:58:24;17.63;;;12.93;;
6661;SDS011;3367;48.714;8.994;2023-07-02T12:00:50;21.87;;;12.73;;
6661;SDS011;3367;48.714;8.994;2023-07-02T12:03:23;20.43;;;12.53;;
6661;SDS011;3367;48.714;8.994;2023-07-02T12:05:53;20.10;;;11.60;;
6661;SDS011;3367;48.714;8.994;2023-07-02T12:08:19;30.63;;;10.90;;
6661;SDS011;3367;48.714;8.994;2023-07-02T12:10:55;17.13;;;11.53;;
6661;SDS011;3367;48.714;8.994;2023-07-02T12:13:25;19.63;;;11.00;;
6661;SDS011;3367;48.714;8.994;2023-07-02T12:15:51;19.30;;;12.27;;
6661;SDS011;3367;48.714;8.994;2023-07-02T12:18:18;18.90;;;12.10;;
6661;SDS011;3367;48.714;8.994;2023-07-02T12:20:49;18.80;;;11.67;;
6661;SDS011;3367;48.714;8.994;2023-07-02T12:23:21;19.60;;;11.80;;
6661;SDS011;3367;48.714;8.994;2023-07-02T12:25:51;21.20;;;12.53;;
6661;SDS011;3367;48.714;8.994;2023-07-02T12:28:18;18.97;;;12.70;;
6661;SDS011;3367;48.714;8.994;2023-07-02T12:30:47;18.03;;;11.40;;
6661;SDS011;3367;48.714;8.994;2023-07-02T12:33:16;19.07;;;12.00;;
6661;SDS011;3367;48.714;8.994;2023-07-02T12:35:56;16.30;;;10.77;;
6661;SDS011;3367;48.714;8.994;2023-07-02T12:38:27;17.70;;;11.43;;
6661;SDS011;3367;48.714;8.994;2023-07-02T12:40:56;19.20;;;12.40;;
6661;SDS011;3367;48.714;8.994;2023-07-02T12:43:26;18.70;;;13.03;;
6661;SDS011;3367;48.714;8.994;2023-07-02T12:45:53;15.80;;;10.90;;
6661;SDS011;3367;48.714;8.994;2023-07-02T12:48:23;20.47;;;13.33;;
6661;SDS011;3367;48.714;8.994;2023-07-02T12:50:57;18.77;;;11.33;;
6661;SDS011;3367;48.714;8.994;2023-07-02T12:53:25;18.17;;;11.40;;
6661;SDS011;3367;48.714;8.994;2023-07-02T12:55:55;15.83;;;11.57;;
6661;SDS011;3367;48.714;8.994;2023-07-02T12:58:22;16.30;;;11.63;;
6661;SDS011;3367;48.714;8.994;2023-07-02T13:00:54;23.80;;;12.90;;
6661;SDS011;3367;48.714;8.994;2023-07-02T13:03:24;17.07;;;10.77;;
6661;SDS011;3367;48.714;8.994;2023-07-02T13:05:58;18.80;;;11.63;;
6661;SDS011;3367;48.714;8.994;2023-07-02T13:08:24;19.30;;;10.60;;
6661;SDS011;3367;48.714;8.994;2023-07-02T13:10:59;19.97;;;11.80;;
6661;SDS011;3367;48.714;8.994;2023-07-02T13:13:29;19.40;;;11.43;;
6661;SDS011;3367;48.714;8.994;2023-07-02T13:16:04;16.30;;;11.17;;
6661;SDS011;3367;48.714;8.994;2023-07-02T13:18:34;19.10;;;10.70;;
6661;SDS011;3367;48.714;8.994;2023-07-02T13:21:14;20.43;;;12.40;;
6661;SDS011;3367;48.714;8.994;2023-07-02T13:23:40;15.73;;;10.57;;
6661;SDS011;3367;48.714;8.994;2023-07-02T13:26:07;19.73;;;11.57;;
6661;SDS011;3367;48.714;8.994;2023-07-02T13:28:34;17.83;;;10.73;;
6661;SDS011;3367;48.714;8.994;2023-07-02T13:31:06;21.93;;;12.40;;
6661;SDS011;3367;48.714;8.994;2023-07-02T13:33:35;16.37;;;11.20;;
6661;SDS011;3367;48.714;8.994;2023-07-02T13:36:04;15.20;;;11.10;;
6661;SDS011;3367;48.714;8.994;2023-07-02T13:38:42;16.10;;;10.40;;
6661;SDS011;3367;48.714;8.994;2023-07-02T13:41:09;16.80;;;10.60;;
6661;SDS011;3367;48.714;8.994;2023-07-02T13:43:37;17.10;;;10.93;;
6661;SDS011;3367;48.714;8.994;2023-07-02T13:46:04;15.73;;;10.67;;
6661;SDS011;3367;48.714;8.994;2023-07-02T13:48:31;18.60;;;11.60;;
6661;SDS011;3367;48.714;8.994;2023-07-02T13:50:58;18.10;;;12.10;;
6661;SDS011;3367;48.714;8.994;2023-07-02T13:56:26;13.90;;;10.00;;
6661;SDS011;3367;48.714;8.994;2023-07-02T13:59:01;19.87;;;10.80;;
6661;SDS011;3367;48.714;8.994;2023-07-02T14:01:29;19.63;;;10.97;;
6661;SDS011;3367;48.714;8.994;2023-07-02T14:03:56;20.07;;;12.20;;
6661;SDS011;3367;48.714;8.994;2023-07-02T14:06:25;18.63;;;11.60;;
6661;SDS011;3367;48.714;8.994;2023-07-02T14:08:58;19.13;;;11.80;;
6661;SDS011;3367;48.714;8.994;2023-07-02T14:11:25;19.73;;;12.30;;
6661;SDS011;3367;48.714;8.994;2023-07-02T14:13:55;19.23;;;12.07;;
6661;SDS011;3367;48.714;8.994;2023-07-02T14:16:29;17.90;;;12.07;;
6661;SDS011;3367;48.714;8.994;2023-07-02T14:19:02;17.60;;;11.97;;
6661;SDS011;3367;48.714;8.994;2023-07-02T14:21:28;18.03;;;11.80;;
6661;SDS011;3367;48.714;8.994;2023-07-02T14:23:55;15.67;;;11.53;;
6661;SDS011;3367;48.714;8.994;2023-07-02T14:26:24;17.30;;;12.57;;
6661;SDS011;3367;48.714;8.994;2023-07-02T14:28:52;19.80;;;12.70;;
6661;SDS011;3367;48.714;8.994;2023-07-02T14:31:24;20.03;;;12.00;;
6661;SDS011;3367;48.714;8.994;2023-07-02T14:33:56;20.13;;;12.57;;
6661;SDS011;3367;48.714;8.994;2023-07-02T14:36:25;16.63;;;11.10;;
6661;SDS011;3367;48.714;8.994;2023-07-02T14:38:53;15.43;;;11.37;;
6661;SDS011;3367;48.714;8.994;2023-07-02T14:41:19;17.93;;;11.60;;
6661;SDS011;3367;48.714;8.994;2023-07-02T14:43:46;19.77;;;12.70;;
6661;SDS011;3367;48.714;8.994;2023-07-02T14:46:13;19.30;;;11.20;;
6661;SDS011;3367;48.714;8.994;2023-07-02T14:48:49;20.07;;;12.07;;
6661;SDS011;3367;48.714;8.994;2023-07-02T14:51:15;22.40;;;13.50;;
6661;SDS011;3367;48.714;8.994;2023-07-02T14:53:45;22.60;;;12.97;;
6661;SDS011;3367;48.714;8.994;2023-07-02T14:56:12;16.30;;;11.17;;
6661;SDS011;3367;48.714;8.994;2023-07-02T14:58:41;23.40;;;11.23;;
6661;SDS011;3367;48.714;8.994;2023-07-02T15:01:08;23.57;;;13.07;;
6661;SDS011;3367;48.714;8.994;2023-07-02T15:03:35;18.50;;;12.90;;
6661;SDS011;3367;48.714;8.994;2023-07-02T15:06:09;17.67;;;11.93;;
6661;SDS011;3367;48.714;8.994;2023-07-02T15:08:41;19.07;;;11.37;;
6661;SDS011;3367;48.714;8.994;2023-07-02T15:11:08;15.00;;;11.10;;
6661;SDS011;3367;48.714;8.994;2023-07-02T15:13:44;18.57;;;11.97;;
6661;SDS011;3367;48.714;8.994;2023-07-02T15:16:11;17.93;;;11.87;;
6661;SDS011;3367;48.714;8.994;2023-07-02T15:18:38;18.33;;;11.23;;
6661;SDS011;3367;48.714;8.994;2023-07-02T15:21:06;19.17;;;13.13;;
6661;SDS011;3367;48.714;8.994;2023-07-02T15:23:40;17.20;;;12.23;;
6661;SDS011;3367;48.714;8.994;2023-07-02T15:26:06;25.77;;;12.90;;